createdAt,value
2019-05-23T00:01:34.210Z,12.40
2019-05-23T00:04:21.624Z,16.02
2019-05-23T00:06:53.477Z,12.82
2019-05-23T00:09:37.513Z,13.60
2019-05-23T00:12:31.854Z,14.10
2019-05-23T00:15:14.153Z,16.32
2019-05-23T00:17:49.574Z,16.25
2019-05-23T00:20:29.869Z,14.18
2019-05-23T00:23:23.322Z,16.32
2019-05-23T00:25:56.177Z,17.48
2019-05-23T00:28:27.547Z,14.60
2019-05-23T00:31:02.947Z,18.48
2019-05-23T00:33:37.976Z,14.80
2019-05-23T00:36:14.449Z,16.48
2019-05-23T00:38:46.051Z,14.30
2019-05-23T00:41:17.600Z,18.35
2019-05-23T00:43:49.180Z,18.30
2019-05-23T00:46:23.079Z,18.12
2019-05-23T00:48:56.687Z,14.20
2019-05-23T00:51:27.458Z,14.87
2019-05-23T00:53:58.781Z,14.23
2019-05-23T00:56:32.607Z,16.45
2019-05-23T00:59:04.460Z,14.68
2019-05-23T01:01:51.054Z,14.47
2019-05-23T01:04:23.392Z,14.70
2019-05-23T01:06:54.330Z,14.33
2019-05-23T01:09:28.101Z,14.58
2019-05-23T01:12:00.029Z,13.93
2019-05-23T01:14:31.486Z,16.00
2019-05-23T01:17:02.987Z,15.28
2019-05-23T01:19:36.502Z,15.93
2019-05-23T01:22:14.350Z,19.77
2019-05-23T01:24:47.861Z,14.65
2019-05-23T01:27:19.586Z,18.60
2019-05-23T01:29:54.648Z,14.40
2019-05-23T01:32:56.234Z,16.15
2019-05-23T01:35:29.164Z,15.10
2019-05-23T01:41:04.899Z,14.80
2019-05-23T01:43:54.490Z,21.75
2019-05-23T01:46:31.865Z,23.47
2019-05-23T01:49:05.999Z,18.95
2019-05-23T01:51:38.047Z,16.85
2019-05-23T01:54:22.916Z,17.30
2019-05-23T01:56:53.601Z,20.23
2019-05-23T01:59:41.177Z,14.85
2019-05-23T02:02:13.859Z,17.57
2019-05-23T02:04:45.772Z,18.15
2019-05-23T02:07:18.781Z,15.08
2019-05-23T02:09:52.331Z,15.68
2019-05-23T02:12:23.660Z,15.03
2019-05-23T02:14:57.159Z,12.47
2019-05-23T02:17:41.323Z,16.50
2019-05-23T02:20:14.178Z,15.78
2019-05-23T02:23:00.677Z,16.10
2019-05-23T02:25:33.436Z,17.82
2019-05-23T02:28:17.019Z,17.73
2019-05-23T02:30:48.388Z,17.87
2019-05-23T02:33:19.743Z,15.98
2019-05-23T02:35:53.289Z,19.48
2019-05-23T02:38:49.284Z,15.38
2019-05-23T02:41:41.113Z,15.43
2019-05-23T02:44:35.319Z,15.98
2019-05-23T02:47:25.964Z,17.27
2019-05-23T02:50:37.322Z,13.05
2019-05-23T02:53:23.009Z,14.65
2019-05-23T02:55:58.329Z,14.90
2019-05-23T02:59:31.450Z,16.70
2019-05-23T03:03:12.768Z,13.38
2019-05-23T03:06:00.998Z,14.58
2019-05-23T03:08:38.420Z,13.88
2019-05-23T03:11:49.687Z,18.35
2019-05-23T03:14:31.145Z,16.17
2019-05-23T03:17:21.897Z,13.70
2019-05-23T03:20:48.302Z,14.75
2019-05-23T03:23:49.548Z,14.30
2019-05-23T03:27:28.110Z,17.37
2019-05-23T03:30:40.322Z,14.35
2019-05-23T03:36:19.072Z,14.55
2019-05-23T03:38:52.481Z,16.17
2019-05-23T07:26:40.403Z,15.95
2019-05-23T07:29:53.302Z,17.80
2019-05-23T07:32:47.036Z,16.02
2019-05-23T07:35:19.310Z,15.50
2019-05-23T07:37:50.303Z,17.75
2019-05-23T07:47:48.006Z,17.62
2019-05-23T07:53:59.859Z,18.92
2019-05-23T07:56:46.772Z,17.57
2019-05-23T11:54:14.672Z,7.85
2019-05-23T11:56:46.660Z,5.78
2019-05-23T12:00:06.420Z,7.17
2019-05-23T12:02:44.087Z,4.40
2019-05-23T12:05:19.321Z,4.45
2019-05-23T12:10:51.555Z,5.17
2019-05-23T12:13:21.989Z,6.25
2019-05-23T12:15:53.175Z,5.58
2019-05-23T12:18:23.476Z,5.60
2019-05-23T12:20:59.431Z,7.20
2019-05-23T12:23:28.158Z,3.80
2019-05-23T12:25:59.107Z,5.55
2019-05-23T12:28:30.108Z,4.97
2019-05-23T12:31:01.050Z,4.37
2019-05-23T12:33:49.432Z,6.00
2019-05-23T12:36:20.327Z,6.08
2019-05-23T12:38:51.141Z,6.50
2019-05-23T12:41:41.636Z,6.30
2019-05-23T12:44:20.667Z,5.60
2019-05-23T12:46:51.858Z,5.25
2019-05-23T12:49:28.705Z,3.08
2019-05-23T12:52:02.281Z,4.08
2019-05-23T12:57:27.363Z,3.25
2019-05-23T12:59:59.726Z,4.97
2019-05-23T13:05:26.377Z,2.52
2019-05-23T13:07:57.144Z,4.75
2019-05-23T13:10:27.848Z,2.40
2019-05-23T13:12:58.273Z,2.25
2019-05-23T13:21:16.359Z,3.62
2019-05-23T13:24:14.643Z,5.33
2019-05-23T13:26:45.755Z,3.27
2019-05-23T13:29:24.071Z,2.55
2019-05-23T13:31:53.806Z,6.72
2019-05-23T13:34:24.424Z,3.15
2019-05-23T13:36:54.848Z,7.55
2019-05-23T13:39:26.551Z,4.28
2019-05-23T13:41:57.353Z,4.42
2019-05-23T13:44:55.884Z,6.03
2019-05-23T13:47:27.306Z,7.08
2019-05-23T13:49:58.117Z,5.50
2019-05-23T13:52:28.514Z,5.50
2019-05-23T13:55:01.305Z,4.67
2019-05-23T13:57:32.189Z,7.00
2019-05-23T14:00:03.364Z,5.33
2019-05-23T14:02:40.445Z,5.87
2019-05-23T14:05:11.167Z,5.30
2019-05-23T14:07:42.915Z,5.53
2019-05-23T14:13:59.584Z,8.85
2019-05-23T14:16:24.260Z,8.00
2019-05-23T14:18:55.066Z,7.65
2019-05-23T14:21:44.435Z,9.63
2019-05-23T14:24:16.728Z,7.70
2019-05-23T14:26:57.151Z,9.43
2019-05-23T14:29:27.926Z,8.38
2019-05-23T14:32:12.184Z,8.10
2019-05-23T14:34:42.643Z,9.48
2019-05-23T14:37:20.932Z,10.28
2019-05-23T14:39:56.376Z,8.18
2019-05-23T14:42:45.934Z,6.97
2019-05-23T14:48:28.318Z,7.47
2019-05-23T14:51:13.197Z,9.58
2019-05-23T14:53:48.141Z,9.03
2019-05-23T14:56:20.244Z,8.53
2019-05-23T14:59:04.871Z,6.67
2019-05-23T15:01:37.435Z,8.13
2019-05-23T15:04:11.835Z,5.62
2019-05-23T15:06:43.042Z,7.33
2019-05-23T15:09:13.665Z,5.92
2019-05-23T15:11:45.866Z,7.87
2019-05-23T15:14:16.702Z,8.58
2019-05-23T15:16:57.151Z,8.38
2019-05-23T15:19:44.268Z,6.65
2019-05-23T15:25:11.495Z,6.58
2019-05-23T15:27:45.136Z,5.87
2019-05-23T15:30:17.749Z,6.70
2019-05-23T15:32:49.200Z,7.45
2019-05-23T15:35:39.070Z,6.67
2019-05-23T15:38:09.418Z,6.42
2019-05-23T15:40:39.776Z,7.20
2019-05-23T15:43:10.405Z,6.37
2019-05-23T15:45:40.970Z,5.55
2019-05-23T15:48:12.900Z,6.42
2019-05-23T15:50:50.733Z,5.78
2019-05-23T15:53:39.310Z,6.00
2019-05-23T15:56:38.447Z,6.72
2019-05-23T16:04:10.353Z,5.37
2019-05-23T16:09:56.738Z,7.65
2019-05-23T18:40:07.895Z,3.92
2019-05-23T18:42:39.205Z,4.65
2019-05-23T18:45:10.530Z,3.98
2019-05-23T18:50:39.938Z,3.98
2019-05-23T18:53:11.134Z,4.55
2019-05-23T18:55:41.676Z,5.53
2019-05-23T18:58:12.800Z,4.47
2019-05-23T19:01:32.452Z,4.05
2019-05-23T19:04:04.270Z,6.60
2019-05-23T19:06:35.853Z,4.20
2019-05-23T19:09:26.507Z,4.25
2019-05-23T19:11:58.225Z,3.67
2019-05-23T19:14:29.600Z,5.05
2019-05-23T19:17:05.083Z,4.42
2019-05-23T19:22:49.787Z,4.30
2019-05-23T19:25:20.868Z,5.83
2019-05-23T19:27:51.587Z,5.42
2019-05-23T19:30:26.423Z,4.37
2019-05-23T19:32:57.545Z,3.85
2019-05-23T19:35:36.476Z,5.75
2019-05-23T19:38:08.221Z,8.48
2019-05-23T19:40:46.643Z,7.12
2019-05-23T19:51:47.344Z,4.80
2019-05-23T19:54:40.611Z,3.70
2019-05-23T19:57:15.145Z,4.83
2019-05-23T19:59:45.769Z,12.53
2019-05-23T20:02:38.403Z,8.15
2019-05-23T20:05:17.747Z,4.80
2019-05-23T20:07:49.456Z,5.05
2019-05-23T20:10:22.414Z,5.10
2019-05-23T20:12:53.410Z,5.17
2019-05-23T20:15:27.448Z,7.08
2019-05-23T20:18:23.937Z,7.58
2019-05-23T20:20:56.315Z,5.03
2019-05-23T20:23:26.964Z,6.20
2019-05-23T20:25:58.285Z,6.17
2019-05-23T20:28:46.766Z,10.03
2019-05-23T20:31:23.092Z,5.80
2019-05-23T20:33:54.484Z,12.40
2019-05-23T20:36:57.910Z,5.53
2019-05-23T20:39:46.417Z,6.70
2019-05-23T20:42:27.874Z,6.08
2019-05-23T20:45:00.646Z,4.42
2019-05-23T20:47:38.773Z,6.75
2019-05-23T20:50:15.614Z,4.62
2019-05-23T20:52:53.769Z,7.17
2019-05-23T20:55:41.638Z,6.92
2019-05-23T20:58:27.740Z,5.72
2019-05-23T21:01:16.556Z,7.53
2019-05-23T21:04:02.569Z,5.75
2019-05-23T21:06:37.628Z,5.75
2019-05-23T21:09:25.170Z,6.05
2019-05-23T21:12:28.323Z,6.12
2019-05-23T21:14:47.071Z,5.87
2019-05-23T21:17:20.895Z,7.15
2019-05-23T21:19:52.064Z,7.30
2019-05-23T21:22:53.973Z,7.53
2019-05-23T21:25:25.599Z,7.72
